createdAt,value
2018-08-16T00:00:13.941Z,47.60
2018-08-16T00:02:42.324Z,47.70
2018-08-16T00:05:10.624Z,47.70
2018-08-16T00:07:38.901Z,47.70
2018-08-16T00:10:12.021Z,47.70
2018-08-16T00:12:40.982Z,47.70
2018-08-16T00:15:09.559Z,47.70
2018-08-16T00:17:38.178Z,47.80
2018-08-16T00:20:06.441Z,47.80
2018-08-16T00:22:34.840Z,47.80
2018-08-16T00:25:03.628Z,47.90
2018-08-16T00:27:31.889Z,47.90
2018-08-16T00:30:00.156Z,47.80
2018-08-16T00:32:28.392Z,48.50
2018-08-16T00:34:57.177Z,47.90
2018-08-16T00:37:26.064Z,48.00
2018-08-16T00:39:54.288Z,47.90
2018-08-16T00:42:22.576Z,48.00
2018-08-16T00:44:50.918Z,48.00
2018-08-16T00:47:19.145Z,48.70
2018-08-16T00:49:47.421Z,48.00
2018-08-16T00:52:15.716Z,47.90
2018-08-16T00:54:44.212Z,47.80
2018-08-16T00:57:12.484Z,47.80
2018-08-16T00:59:40.741Z,47.90
2018-08-16T01:02:08.959Z,48.00
2018-08-16T01:04:37.228Z,47.90
2018-08-16T01:07:05.490Z,48.60
2018-08-16T01:09:33.732Z,48.00
2018-08-16T01:12:01.983Z,48.10
2018-08-16T01:14:30.347Z,48.10
2018-08-16T01:16:58.646Z,48.20
2018-08-16T01:19:26.902Z,48.20
2018-08-16T01:21:55.128Z,48.20
2018-08-16T01:24:23.368Z,48.10
2018-08-16T01:26:51.649Z,48.00
2018-08-16T01:29:19.900Z,48.00
2018-08-16T01:31:48.140Z,48.00
2018-08-16T01:34:16.380Z,48.00
2018-08-16T01:36:44.668Z,48.00
2018-08-16T01:39:12.924Z,48.00
2018-08-16T01:41:41.161Z,48.10
2018-08-16T01:44:09.442Z,48.20
2018-08-16T01:46:37.691Z,48.10
2018-08-16T01:49:21.313Z,48.10
2018-08-16T01:51:49.541Z,48.00
2018-08-16T01:54:17.768Z,48.10
2018-08-16T01:56:46.039Z,48.20
2018-08-16T01:59:14.317Z,48.20
2018-08-16T02:01:42.596Z,48.20
2018-08-16T02:04:10.873Z,48.20
2018-08-16T02:06:39.149Z,48.20
2018-08-16T02:09:08.318Z,48.20
2018-08-16T02:11:36.729Z,48.10
2018-08-16T02:14:05.013Z,48.20
2018-08-16T02:16:33.296Z,48.20
2018-08-16T02:19:02.156Z,48.20
2018-08-16T02:21:31.077Z,48.20
2018-08-16T02:23:59.301Z,48.30
2018-08-16T02:26:27.532Z,48.30
2018-08-16T02:28:55.791Z,48.30
2018-08-16T02:31:24.049Z,48.30
2018-08-16T02:33:52.598Z,48.30
2018-08-16T02:36:20.857Z,48.30
2018-08-16T02:38:49.657Z,48.30
2018-08-16T02:41:17.950Z,48.40
2018-08-16T02:43:46.332Z,48.40
2018-08-16T02:46:14.844Z,48.50
2018-08-16T02:48:43.064Z,48.50
2018-08-16T02:51:11.377Z,48.40
2018-08-16T02:53:39.661Z,48.50
2018-08-16T02:56:08.271Z,48.50
2018-08-16T02:58:36.497Z,48.50
2018-08-16T03:01:04.789Z,48.50
2018-08-16T03:03:33.284Z,49.20
2018-08-16T03:06:01.613Z,48.60
2018-08-16T03:08:29.886Z,48.60
2018-08-16T03:10:58.145Z,48.60
2018-08-16T03:13:26.405Z,48.50
2018-08-16T03:15:54.684Z,48.60
2018-08-16T03:18:22.940Z,48.70
2018-08-16T03:20:51.189Z,48.60
2018-08-16T03:23:19.424Z,48.70
2018-08-16T03:25:47.676Z,48.70
2018-08-16T03:28:15.960Z,48.70
2018-08-16T03:30:44.208Z,48.70
2018-08-16T03:33:12.512Z,48.80
2018-08-16T03:35:40.760Z,48.80
2018-08-16T03:38:09.056Z,48.90
2018-08-16T03:40:37.282Z,48.90
2018-08-16T03:43:05.688Z,48.90
2018-08-16T03:45:33.941Z,48.90
2018-08-16T03:48:02.227Z,48.80
2018-08-16T03:50:30.441Z,48.80
2018-08-16T03:52:58.721Z,48.90
2018-08-16T03:55:26.964Z,49.10
2018-08-16T03:57:55.261Z,49.00
2018-08-16T04:00:23.525Z,49.30
2018-08-16T04:02:51.749Z,49.00
2018-08-16T04:05:20.017Z,49.00
2018-08-16T04:07:48.268Z,48.90
2018-08-16T04:10:16.508Z,49.00
2018-08-16T04:12:44.760Z,49.00
2018-08-16T04:15:13.065Z,49.10
2018-08-16T04:17:41.288Z,49.10
2018-08-16T04:20:09.528Z,49.20
2018-08-16T04:22:37.804Z,49.10
2018-08-16T04:25:06.041Z,49.10
2018-08-16T04:27:34.276Z,49.20
2018-08-16T04:30:02.568Z,49.20
2018-08-16T04:32:30.815Z,49.10
2018-08-16T04:34:59.088Z,49.00
2018-08-16T04:37:27.316Z,49.00
2018-08-16T04:39:55.576Z,49.20
2018-08-16T04:42:23.842Z,49.10
2018-08-16T04:44:52.092Z,49.80
2018-08-16T04:47:20.368Z,49.10
2018-08-16T04:49:48.640Z,49.30
2018-08-16T04:52:16.877Z,49.30
2018-08-16T04:54:45.120Z,49.30
2018-08-16T04:57:13.389Z,49.30
2018-08-16T04:59:41.626Z,49.30
2018-08-16T05:02:09.916Z,49.40
2018-08-16T05:04:38.148Z,49.40
2018-08-16T05:07:06.448Z,49.30
2018-08-16T05:09:34.713Z,49.20
2018-08-16T05:12:02.980Z,49.30
2018-08-16T05:14:31.244Z,49.10
2018-08-16T05:16:59.505Z,49.20
2018-08-16T05:19:27.780Z,49.10
2018-08-16T05:21:56.036Z,49.20
2018-08-16T05:24:24.300Z,49.20
2018-08-16T05:26:52.560Z,49.20
2018-08-16T05:29:20.816Z,49.20
2018-08-16T05:31:49.120Z,49.10
2018-08-16T05:34:17.493Z,49.10
2018-08-16T05:36:45.784Z,49.20
2018-08-16T05:39:14.105Z,49.10
2018-08-16T05:41:42.399Z,49.20
2018-08-16T05:44:10.745Z,49.20
2018-08-16T05:46:39.026Z,49.20
2018-08-16T05:49:07.350Z,49.20
2018-08-16T05:51:35.666Z,49.40
2018-08-16T05:54:03.992Z,49.30
2018-08-16T05:56:32.245Z,49.40
2018-08-16T05:59:00.493Z,49.40
2018-08-16T06:01:28.760Z,49.40
2018-08-16T06:03:56.991Z,49.40
2018-08-16T06:06:25.275Z,49.40
2018-08-16T06:08:54.661Z,49.40
2018-08-16T06:11:22.916Z,49.40
2018-08-16T06:13:51.170Z,49.40
2018-08-16T06:16:19.674Z,49.40
2018-08-16T06:18:47.984Z,49.40
2018-08-16T06:21:16.268Z,49.50
2018-08-16T06:23:45.470Z,49.80
2018-08-16T06:26:15.490Z,49.50
2018-08-16T06:28:43.710Z,49.50
2018-08-16T06:31:12.040Z,49.50
2018-08-16T06:33:40.269Z,49.40
2018-08-16T06:36:08.520Z,49.40
2018-08-16T06:38:36.772Z,49.30
2018-08-16T06:41:05.009Z,49.40
2018-08-16T06:43:33.254Z,49.40
2018-08-16T06:46:01.535Z,49.30
2018-08-16T06:48:29.809Z,49.20
2018-08-16T06:50:58.052Z,49.30
2018-08-16T06:53:26.529Z,49.20
2018-08-16T06:55:54.781Z,49.20
2018-08-16T06:58:24.847Z,49.20
2018-08-16T07:00:57.073Z,49.10
2018-08-16T07:03:25.333Z,49.10
2018-08-16T07:05:53.624Z,49.20
2018-08-16T07:08:21.877Z,49.20
2018-08-16T07:10:50.157Z,49.20
2018-08-16T07:13:18.409Z,49.20
2018-08-16T07:15:46.735Z,49.20
2018-08-16T07:18:15.015Z,49.60
2018-08-16T07:20:43.253Z,49.00
2018-08-16T07:23:11.513Z,49.70
2018-08-16T07:25:39.749Z,51.70
2018-08-16T07:28:07.977Z,51.20
2018-08-16T07:30:36.244Z,52.60
2018-08-16T07:33:04.481Z,53.10
2018-08-16T07:35:32.733Z,53.20
2018-08-16T07:38:00.948Z,51.70
2018-08-16T07:40:31.046Z,51.80
2018-08-16T07:42:59.420Z,51.10
2018-08-16T07:45:27.698Z,52.80
2018-08-16T07:47:55.921Z,53.00
2018-08-16T07:50:24.628Z,52.90
2018-08-16T07:52:52.921Z,53.40
2018-08-16T07:55:21.200Z,53.40
2018-08-16T07:57:49.436Z,52.70
2018-08-16T08:00:18.719Z,52.10
2018-08-16T08:02:47.407Z,52.10
2018-08-16T08:05:15.702Z,51.30
2018-08-16T08:07:43.953Z,51.40
2018-08-16T08:10:12.204Z,51.70
2018-08-16T08:12:40.522Z,51.40
2018-08-16T08:15:11.249Z,50.70
2018-08-16T08:17:40.172Z,50.30
2018-08-16T08:20:11.559Z,49.80
2018-08-16T08:22:39.993Z,49.60
2018-08-16T08:25:08.636Z,49.40
2018-08-16T08:27:37.073Z,49.30
2018-08-16T08:30:07.865Z,49.20
2018-08-16T08:32:36.165Z,49.10
2018-08-16T08:35:05.024Z,49.00
2018-08-16T08:37:44.744Z,48.80
2018-08-16T08:40:13.025Z,48.70
2018-08-16T08:42:41.314Z,48.60
2018-08-16T08:45:09.597Z,48.40
2018-08-16T08:47:43.177Z,48.40
2018-08-16T08:50:12.026Z,48.40
2018-08-16T08:52:40.372Z,48.30
2018-08-16T08:55:19.929Z,48.30
2018-08-16T08:58:04.145Z,48.10
2018-08-16T09:00:33.149Z,48.10
2018-08-16T09:03:02.686Z,47.80
2018-08-16T09:05:30.948Z,47.70
2018-08-16T09:07:59.214Z,47.60
2018-08-16T09:11:21.214Z,47.50
2018-08-16T09:14:03.116Z,47.50
2018-08-16T09:16:33.336Z,47.30
2018-08-16T09:19:01.912Z,46.90
2018-08-16T09:21:31.028Z,47.50
2018-08-16T09:23:59.443Z,47.10
2018-08-16T09:26:33.068Z,47.20
2018-08-16T09:29:01.326Z,47.10
2018-08-16T09:31:41.356Z,46.80
2018-08-16T09:34:16.552Z,46.80
2018-08-16T09:36:45.473Z,46.00
2018-08-16T09:39:13.965Z,46.10
2018-08-16T09:41:42.495Z,46.70
2018-08-16T09:44:11.718Z,46.90
2018-08-16T09:46:54.480Z,46.40
2018-08-16T09:49:22.760Z,47.00
2018-08-16T09:51:51.287Z,46.90
2018-08-16T09:54:19.589Z,46.70
2018-08-16T09:56:48.412Z,46.10
2018-08-16T09:59:17.161Z,46.60
2018-08-16T10:01:45.449Z,45.90
2018-08-16T10:04:14.140Z,46.60
2018-08-16T10:06:43.065Z,46.50
2018-08-16T10:09:14.696Z,46.30
2018-08-16T10:11:44.393Z,46.30
2018-08-16T10:14:13.173Z,46.20
2018-08-16T10:16:41.609Z,46.30
2018-08-16T10:19:09.910Z,46.20
2018-08-16T10:21:38.405Z,45.80
2018-08-16T10:24:06.886Z,46.10
2018-08-16T10:26:35.535Z,43.60
2018-08-16T10:29:04.108Z,46.00
2018-08-16T10:31:32.405Z,46.10
2018-08-16T10:34:00.648Z,45.50
2018-08-16T10:36:29.041Z,45.90
2018-08-16T10:38:57.698Z,43.60
2018-08-16T10:41:25.951Z,44.80
2018-08-16T10:43:54.285Z,43.00
2018-08-16T10:46:22.615Z,45.80
2018-08-16T10:48:50.911Z,46.00
2018-08-16T10:51:19.152Z,45.90
2018-08-16T10:53:47.416Z,45.50
2018-08-16T10:56:15.708Z,45.00
2018-08-16T10:58:43.984Z,45.20
2018-08-16T11:01:12.307Z,45.20
2018-08-16T11:03:41.704Z,44.30
2018-08-16T11:06:11.515Z,44.90
2018-08-16T11:08:40.024Z,41.10
2018-08-16T11:11:08.514Z,41.70
2018-08-16T11:13:36.960Z,42.30
2018-08-16T11:16:05.214Z,42.20
2018-08-16T11:18:33.846Z,44.60
2018-08-16T11:21:02.166Z,44.70
2018-08-16T11:23:30.400Z,43.70
2018-08-16T11:25:59.613Z,45.20
2018-08-16T11:28:27.878Z,45.10
2018-08-16T11:30:56.168Z,45.00
2018-08-16T11:33:24.444Z,45.00
2018-08-16T11:35:53.038Z,43.30
2018-08-16T11:38:21.380Z,44.70
2018-08-16T11:40:49.696Z,44.10
2018-08-16T11:43:18.002Z,44.40
2018-08-16T11:45:46.264Z,44.60
2018-08-16T11:48:14.520Z,44.10
2018-08-16T11:50:43.181Z,42.90
2018-08-16T11:53:11.413Z,44.50
2018-08-16T11:55:39.755Z,44.00
2018-08-16T11:58:08.064Z,43.30
2018-08-16T12:00:36.326Z,42.80
2018-08-16T12:03:04.910Z,43.60
2018-08-16T12:05:33.326Z,37.10
2018-08-16T12:08:01.614Z,44.10
2018-08-16T12:10:29.868Z,43.60
2018-08-16T12:12:58.134Z,40.10
2018-08-16T12:15:26.578Z,41.30
2018-08-16T12:17:55.137Z,44.10
2018-08-16T12:20:23.591Z,43.70
2018-08-16T12:22:51.872Z,43.20
2018-08-16T12:25:20.117Z,38.80
2018-08-16T12:27:48.495Z,43.80
2018-08-16T12:30:16.857Z,43.60
2018-08-16T12:32:45.116Z,43.40
2018-08-16T12:35:13.367Z,43.40
2018-08-16T12:37:41.683Z,43.30
2018-08-16T12:40:10.040Z,38.70
2018-08-16T12:42:38.326Z,43.20
2018-08-16T12:45:06.785Z,43.40
2018-08-16T12:47:35.127Z,43.30
2018-08-16T12:50:03.390Z,42.80
2018-08-16T12:52:31.676Z,41.60
2018-08-16T12:54:59.930Z,43.60
2018-08-16T12:57:28.157Z,41.40
2018-08-16T12:59:56.421Z,42.20
2018-08-16T13:02:24.665Z,42.40
2018-08-16T13:04:52.936Z,42.70
2018-08-16T13:07:21.169Z,43.10
2018-08-16T13:09:49.417Z,42.50
2018-08-16T13:12:17.646Z,41.00
2018-08-16T13:14:45.886Z,43.20
2018-08-16T13:17:14.762Z,42.50
2018-08-16T13:19:43.781Z,43.00
2018-08-16T13:22:12.846Z,42.70
2018-08-16T13:24:41.659Z,42.70
2018-08-16T13:27:10.458Z,42.80
2018-08-16T13:29:38.732Z,42.70
2018-08-16T13:32:07.246Z,41.60
2018-08-16T13:34:35.480Z,36.50
2018-08-16T13:37:03.931Z,39.60
2018-08-16T13:39:32.182Z,36.00
2018-08-16T13:42:00.479Z,42.40
2018-08-16T13:44:28.757Z,40.00
2018-08-16T13:46:57.173Z,43.30
2018-08-16T13:49:25.434Z,43.10
2018-08-16T13:51:53.659Z,44.00
2018-08-16T13:54:21.921Z,43.10
2018-08-16T13:56:50.157Z,42.70
2018-08-16T13:59:18.479Z,41.20
2018-08-16T14:01:46.755Z,42.30
2018-08-16T14:04:15.032Z,41.70
2018-08-16T14:06:43.278Z,42.30
2018-08-16T14:09:12.328Z,40.10
2018-08-16T14:11:40.741Z,42.10
2018-08-16T14:14:09.005Z,42.00
2018-08-16T14:16:37.233Z,38.90
2018-08-16T14:19:05.677Z,41.80
2018-08-16T14:21:33.975Z,41.20
2018-08-16T14:24:02.452Z,41.70
2018-08-16T14:26:30.665Z,42.00
2018-08-16T14:28:58.928Z,42.00
2018-08-16T14:31:27.183Z,42.50
2018-08-16T14:33:55.480Z,42.40
2018-08-16T14:36:23.708Z,38.80
2018-08-16T14:38:52.056Z,42.30
2018-08-16T14:41:20.233Z,41.60
2018-08-16T14:43:48.493Z,42.50
2018-08-16T14:46:16.780Z,42.40
2018-08-16T14:48:45.013Z,41.70
2018-08-16T14:51:13.273Z,42.40
2018-08-16T14:53:41.493Z,42.40
2018-08-16T14:56:09.785Z,43.10
2018-08-16T14:58:38.032Z,41.20
2018-08-16T15:01:06.480Z,39.00
2018-08-16T15:03:34.717Z,40.50
2018-08-16T15:06:02.996Z,42.20
2018-08-16T15:08:31.225Z,40.10
2018-08-16T15:10:59.476Z,41.90
2018-08-16T15:13:27.753Z,41.60
2018-08-16T15:15:56.010Z,41.50
2018-08-16T15:18:24.241Z,41.60
2018-08-16T15:20:52.519Z,39.40
2018-08-16T15:23:20.780Z,41.10
2018-08-16T15:25:49.061Z,41.50
2018-08-16T15:28:18.538Z,40.30
2018-08-16T15:30:46.809Z,41.30
2018-08-16T15:33:15.062Z,40.30
2018-08-16T15:35:43.305Z,41.80
2018-08-16T15:38:11.545Z,42.30
2018-08-16T15:40:39.804Z,39.60
2018-08-16T15:43:08.065Z,41.30
2018-08-16T15:45:36.309Z,38.90
2018-08-16T15:48:08.799Z,41.30
2018-08-16T15:50:36.984Z,39.60
2018-08-16T15:53:05.580Z,40.40
2018-08-16T15:55:33.909Z,41.90
2018-08-16T15:58:02.160Z,41.90
2018-08-16T16:00:30.419Z,39.60
2018-08-16T16:02:58.717Z,40.30
2018-08-16T16:05:27.038Z,39.10
2018-08-16T16:07:55.261Z,42.30
2018-08-16T16:10:23.534Z,39.20
2018-08-16T16:12:51.873Z,39.10
2018-08-16T16:15:20.136Z,39.60
2018-08-16T16:17:48.414Z,38.60
2018-08-16T16:20:16.661Z,38.70
2018-08-16T16:22:44.924Z,41.20
2018-08-16T16:25:13.180Z,38.70
2018-08-16T16:27:41.425Z,42.00
2018-08-16T16:30:10.659Z,42.20
2018-08-16T16:32:38.937Z,43.10
2018-08-16T16:35:07.364Z,41.50
2018-08-16T16:37:35.592Z,40.40
2018-08-16T16:40:03.934Z,40.20
2018-08-16T16:42:32.261Z,40.70
2018-08-16T16:45:00.499Z,40.50
2018-08-16T16:47:28.688Z,40.20
2018-08-16T16:49:56.948Z,40.70
2018-08-16T16:52:25.204Z,42.40
2018-08-16T16:54:53.448Z,40.20
2018-08-16T16:57:21.722Z,40.00
2018-08-16T16:59:50.000Z,41.30
2018-08-16T17:02:18.240Z,40.60
2018-08-16T17:04:46.495Z,42.60
2018-08-16T17:07:14.776Z,43.00
2018-08-16T17:09:43.004Z,40.60
2018-08-16T17:12:11.272Z,41.00
2018-08-16T17:14:39.499Z,39.70
2018-08-16T17:17:07.961Z,40.40
2018-08-16T17:19:36.241Z,40.10
2018-08-16T17:22:04.524Z,40.50
2018-08-16T17:24:32.780Z,39.00
2018-08-16T17:27:01.049Z,40.70
2018-08-16T17:29:29.270Z,39.90
2018-08-16T17:31:57.583Z,40.00
2018-08-16T17:34:26.044Z,41.20
2018-08-16T17:36:54.547Z,41.50
2018-08-16T17:39:22.757Z,39.80
2018-08-16T17:41:51.035Z,41.90
2018-08-16T17:44:19.300Z,42.20
2018-08-16T17:46:47.741Z,42.20
2018-08-16T17:49:16.838Z,42.40
2018-08-16T17:51:45.377Z,42.50
2018-08-16T17:54:13.621Z,42.80
2018-08-16T17:56:43.003Z,41.50
2018-08-16T17:59:11.674Z,43.80
2018-08-16T18:01:39.940Z,44.00
2018-08-16T18:04:08.334Z,43.20
2018-08-16T18:06:36.900Z,44.60
2018-08-16T18:09:06.792Z,44.40
2018-08-16T18:11:35.387Z,44.50
2018-08-16T18:14:03.641Z,44.80
2018-08-16T18:16:32.380Z,45.00
2018-08-16T18:19:00.634Z,44.80
2018-08-16T18:21:29.057Z,43.90
2018-08-16T18:24:00.191Z,44.50
2018-08-16T18:26:29.228Z,45.30
2018-08-16T18:28:58.443Z,45.10
2018-08-16T18:31:27.132Z,45.40
2018-08-16T18:33:56.701Z,45.20
2018-08-16T18:36:25.433Z,45.50
2018-08-16T18:38:53.972Z,45.30
2018-08-16T18:41:23.529Z,45.70
2018-08-16T18:43:53.028Z,45.60
2018-08-16T18:46:22.850Z,45.60
2018-08-16T18:48:51.392Z,45.60
2018-08-16T18:51:19.893Z,45.40
2018-08-16T18:53:48.422Z,45.70
2018-08-16T18:56:16.947Z,45.70
2018-08-16T18:58:45.574Z,45.80
2018-08-16T19:01:14.524Z,45.70
2018-08-16T19:03:44.150Z,45.80
2018-08-16T19:06:13.055Z,45.90
2018-08-16T19:08:42.375Z,45.90
2018-08-16T19:11:10.955Z,45.90
2018-08-16T19:13:39.632Z,45.90
2018-08-16T19:16:08.224Z,45.90
2018-08-16T19:18:37.768Z,46.00
2018-08-16T19:21:06.664Z,46.00
2018-08-16T19:23:36.149Z,46.00
2018-08-16T19:26:04.919Z,46.10
2018-08-16T19:28:33.532Z,46.00
2018-08-16T19:31:02.280Z,46.10
2018-08-16T19:33:31.320Z,46.10
2018-08-16T19:35:59.912Z,46.10
2018-08-16T19:38:28.584Z,46.20
2018-08-16T19:40:57.097Z,46.20
2018-08-16T19:43:25.590Z,46.20
2018-08-16T19:45:54.986Z,46.10
2018-08-16T19:48:23.543Z,46.20
2018-08-16T19:50:52.392Z,46.20
2018-08-16T19:53:21.800Z,46.30
2018-08-16T19:55:50.337Z,46.30
2018-08-16T19:58:18.943Z,46.20
2018-08-16T20:00:47.510Z,46.20
2018-08-16T20:03:16.669Z,46.20
2018-08-16T20:05:45.145Z,46.20
2018-08-16T20:08:13.647Z,46.10
2018-08-16T20:10:42.148Z,46.20
2018-08-16T20:13:11.045Z,46.20
2018-08-16T20:15:39.553Z,46.20
2018-08-16T20:18:08.121Z,46.30
2018-08-16T20:20:36.592Z,46.30
2018-08-16T20:23:05.271Z,46.40
2018-08-16T20:25:35.032Z,46.30
2018-08-16T20:28:04.268Z,46.40
2018-08-16T20:30:32.753Z,46.40
2018-08-16T20:33:01.348Z,46.40
2018-08-16T20:35:29.843Z,46.50
2018-08-16T20:37:58.341Z,46.50
2018-08-16T20:40:27.092Z,46.60
2018-08-16T20:42:55.609Z,46.60
2018-08-16T20:45:24.648Z,46.50
2018-08-16T20:47:53.220Z,47.20
2018-08-16T20:50:21.920Z,46.50
2018-08-16T20:52:50.361Z,46.60
2018-08-16T20:55:18.781Z,46.50
2018-08-16T20:57:47.173Z,46.60
2018-08-16T21:00:15.558Z,46.60
2018-08-16T21:02:44.060Z,46.60
2018-08-16T21:05:12.651Z,46.60
2018-08-16T21:07:41.199Z,46.70
2018-08-16T21:10:10.428Z,46.70
2018-08-16T21:12:39.042Z,46.70
2018-08-16T21:15:08.251Z,46.80
2018-08-16T21:17:37.356Z,46.70
2018-08-16T21:20:08.069Z,46.70
2018-08-16T21:22:36.651Z,46.70
2018-08-16T21:25:05.688Z,46.80
2018-08-16T21:27:34.184Z,46.80
2018-08-16T21:30:02.774Z,46.80
2018-08-16T21:32:32.178Z,46.80
2018-08-16T21:35:00.684Z,46.90
2018-08-16T21:37:29.274Z,46.80
2018-08-16T21:39:58.137Z,46.90
2018-08-16T21:42:26.631Z,46.90
2018-08-16T21:44:55.266Z,46.90
2018-08-16T21:47:23.800Z,46.90
2018-08-16T21:49:52.935Z,47.00
2018-08-16T21:52:21.389Z,47.00
2018-08-16T21:54:50.111Z,47.00
2018-08-16T21:57:18.615Z,47.00
2018-08-16T21:59:47.161Z,47.00
2018-08-16T22:02:15.703Z,47.10
2018-08-16T22:04:44.654Z,47.00
2018-08-16T22:08:18.252Z,47.10
2018-08-16T22:10:46.772Z,47.10
2018-08-16T22:13:15.310Z,47.20
2018-08-16T22:15:44.626Z,47.20
2018-08-16T22:18:13.267Z,47.10
2018-08-16T22:20:45.334Z,47.20
2018-08-16T22:23:13.991Z,47.10
2018-08-16T22:25:42.729Z,47.20
2018-08-16T22:28:11.348Z,47.20
2018-08-16T22:30:40.118Z,47.10
2018-08-16T22:33:08.651Z,47.20
2018-08-16T22:35:37.209Z,47.20
2018-08-16T22:38:06.430Z,47.30
2018-08-16T22:40:34.927Z,47.30
2018-08-16T22:43:03.572Z,47.30
2018-08-16T22:45:32.288Z,47.40
2018-08-16T22:48:00.745Z,47.50
2018-08-16T22:50:29.288Z,47.40
2018-08-16T22:52:57.784Z,48.00
2018-08-16T22:55:26.516Z,47.60
2018-08-16T22:57:55.737Z,47.40
2018-08-16T23:00:25.590Z,47.40
2018-08-16T23:02:54.722Z,47.50
2018-08-16T23:05:23.125Z,47.50
2018-08-16T23:07:54.344Z,47.50
2018-08-16T23:10:22.865Z,47.60
2018-08-16T23:12:51.363Z,47.60
2018-08-16T23:15:19.914Z,47.70
2018-08-16T23:17:48.453Z,47.60
2018-08-16T23:20:17.236Z,47.50
2018-08-16T23:22:45.724Z,47.70
2018-08-16T23:25:14.319Z,48.40
2018-08-16T23:27:42.862Z,47.70
2018-08-16T23:30:13.130Z,47.70
2018-08-16T23:32:41.843Z,48.50
2018-08-16T23:35:10.609Z,47.70
2018-08-16T23:37:39.110Z,47.90
2018-08-16T23:40:09.719Z,47.80
2018-08-16T23:42:38.305Z,47.80
2018-08-16T23:45:07.579Z,47.90
2018-08-16T23:47:36.169Z,47.80
2018-08-16T23:50:06.489Z,47.80
2018-08-16T23:52:35.098Z,47.80
2018-08-16T23:55:04.587Z,47.90
2018-08-16T23:57:33.175Z,47.90
